Time;durP1;ratioP1;P1;durP2;ratioP2;P2;SDS_P1;SDS_P2;PMS_P1;PMS_P2;Temp;Humidity;BMP_temperature;BMP_pressure;BME280_temperature;BME280_humidity;BME280_pressure;Samples;Min_cycle;Max_cycle;Signal;HPM_P1;HPM_P2
2022/02/17 00:01:15;;;;;;;1.15;1.00;;;;;;;9.70;67.22;97724.97;4989981;28;106213;-75
2022/02/17 00:03:40;;;;;;;1.40;1.05;;;;;;;9.72;67.31;97746.84;4990540;28;106377;-74
2022/02/17 00:06:06;;;;;;;1.85;1.05;;;;;;;9.73;66.65;97740.50;4990439;28;105915;-75
2022/02/17 00:08:31;;;;;;;2.03;1.40;;;;;;;9.70;67.00;97734.81;4990630;28;105825;-76
2022/02/17 00:10:56;;;;;;;1.48;0.95;;;;;;;9.60;66.76;97741.47;4990584;28;106274;-76
2022/02/17 00:13:22;;;;;;;2.22;1.23;;;;;;;9.39;67.10;97708.22;4990624;28;106002;-75
2022/02/17 00:15:47;;;;;;;1.27;1.00;;;;;;;9.20;68.04;97693.31;4989851;28;106038;-76
2022/02/17 00:18:22;;;;;;;2.33;1.00;;;;;;;9.10;69.21;97685.88;4990913;28;106413;-76
2022/02/17 00:20:50;;;;;;;1.70;0.90;;;;;;;8.97;69.48;97649.66;4991159;28;105740;-75
2022/02/17 00:23:15;;;;;;;1.55;1.20;;;;;;;8.95;70.83;97679.09;4990493;28;106401;-75
2022/02/17 00:25:40;;;;;;;0.68;0.60;;;;;;;8.86;70.97;97671.63;4989831;28;106682;-75
2022/02/17 00:28:06;;;;;;;3.95;1.45;;;;;;;8.84;71.82;97665.75;4990864;28;106009;-76
2022/02/17 00:30:31;;;;;;;1.33;0.90;;;;;;;8.78;71.94;97664.78;4990174;28;106159;-76
2022/02/17 00:32:56;;;;;;;0.85;0.55;;;;;;;8.73;72.94;97638.88;4989994;28;106092;-74
2022/02/17 00:35:22;;;;;;;3.63;0.75;;;;;;;8.74;72.99;97653.78;4989727;28;105878;-76
2022/02/17 00:37:47;;;;;;;2.55;0.95;;;;;;;8.75;72.75;97623.56;4989635;28;106355;-75
2022/02/17 00:40:12;;;;;;;0.82;0.70;;;;;;;8.75;73.28;97651.97;4989830;28;117951;-73
2022/02/17 00:42:38;;;;;;;1.30;0.85;;;;;;;8.76;73.71;97603.13;4990103;28;105956;-75
2022/02/17 00:45:03;;;;;;;1.27;0.45;;;;;;;8.75;73.55;97599.66;4989104;28;128940;-75
2022/02/17 00:47:29;;;;;;;0.93;0.63;;;;;;;8.80;73.60;97610.44;4990114;28;105773;-74
2022/02/17 00:49:54;;;;;;;0.88;0.57;;;;;;;8.85;73.82;97595.69;4990717;28;105810;-75
2022/02/17 00:52:19;;;;;;;0.88;0.68;;;;;;;8.88;73.76;97606.66;4988762;28;127308;-75
2022/02/17 00:54:45;;;;;;;0.60;0.55;;;;;;;8.91;73.30;97600.09;4989368;28;106527;-76
2022/02/17 00:57:10;;;;;;;1.42;0.60;;;;;;;8.96;73.41;97610.88;4990152;28;106216;-74
2022/02/17 00:59:35;;;;;;;0.80;0.57;;;;;;;9.01;73.25;97595.06;4989664;28;106185;-74
2022/02/17 01:02:01;;;;;;;0.75;0.60;;;;;;;9.05;73.92;97603.38;4989167;28;106861;-74
2022/02/17 01:04:26;;;;;;;0.55;0.50;;;;;;;9.12;73.54;97585.53;4988707;28;124458;-75
2022/02/17 01:06:52;;;;;;;0.50;0.50;;;;;;;9.16;73.36;97578.75;4989929;28;105830;-76
2022/02/17 01:09:17;;;;;;;0.52;0.40;;;;;;;9.18;73.24;97560.72;4989457;28;106221;-74
2022/02/17 01:11:43;;;;;;;0.80;0.43;;;;;;;9.27;73.08;97550.59;4989084;28;106071;-74
2022/02/17 01:14:10;;;;;;;0.88;0.40;;;;;;;9.39;72.88;97527.53;4989175;28;106092;-76
2022/02/17 01:16:36;;;;;;;0.50;0.50;;;;;;;9.49;72.53;97524.31;4990020;28;105991;-75
2022/02/17 01:19:02;;;;;;;1.75;0.52;;;;;;;9.55;72.18;97518.06;4989864;28;105992;-75
2022/02/17 01:21:27;;;;;;;0.63;0.40;;;;;;;9.62;71.39;97513.47;4988676;28;106963;-75
2022/02/17 01:23:53;;;;;;;0.30;0.30;;;;;;;9.65;71.38;97528.16;4989070;28;105825;-75
2022/02/17 01:26:18;;;;;;;0.70;0.45;;;;;;;9.65;71.31;97514.88;4987552;28;105953;-75
2022/02/17 01:28:43;;;;;;;0.65;0.55;;;;;;;9.62;71.72;97504.66;4988704;28;106161;-75
2022/02/17 01:31:09;;;;;;;0.45;0.45;;;;;;;9.47;71.43;97476.72;4989133;28;105912;-75
2022/02/17 01:33:36;;;;;;;0.50;0.40;;;;;;;9.28;72.08;97488.44;4988571;28;119640;-76
2022/02/17 01:36:06;;;;;;;1.00;0.68;;;;;;;9.18;72.49;97459.00;4991285;28;106039;-75
2022/02/17 01:38:32;;;;;;;;;;;;;;;9.13;73.32;97465.78;4988855;28;106398;-76
2022/02/17 01:40:57;;;;;;;2.40;0.50;;;;;;;9.13;73.87;97418.00;4990663;28;105938;-77
2022/02/17 01:43:22;;;;;;;1.27;0.50;;;;;;;9.14;73.82;97411.66;4988747;28;108622;-76
2022/02/17 01:45:48;;;;;;;0.38;0.38;;;;;;;9.15;73.40;97399.97;4988641;28;105873;-75
2022/02/17 01:48:13;;;;;;;0.30;0.30;;;;;;;9.17;73.66;97396.28;4988979;28;106208;-77
2022/02/17 01:50:41;;;;;;;0.90;0.45;;;;;;;9.22;74.09;97380.47;4988072;28;112018;-76
2022/02/17 01:53:11;;;;;;;1.40;0.30;;;;;;;9.27;73.77;97369.97;4986454;28;106369;-76
2022/02/17 01:55:38;;;;;;;0.50;0.50;;;;;;;9.30;73.56;97374.81;4988270;28;105999;-75
2022/02/17 01:58:04;;;;;;;0.40;0.40;;;;;;;9.29;73.38;97365.22;4988212;28;106249;-74
2022/02/17 02:00:30;;;;;;;0.40;0.40;;;;;;;9.30;73.18;97351.69;4987942;28;105802;-76
2022/02/17 02:02:56;;;;;;;0.30;0.30;;;;;;;9.31;73.16;97344.56;4988065;28;105945;-76
2022/02/17 02:05:21;;;;;;;0.30;0.30;;;;;;;9.31;72.74;97355.19;4988713;28;106063;-76
2022/02/17 02:07:47;;;;;;;0.65;0.57;;;;;;;9.28;72.97;97340.50;4987665;28;107885;-75
2022/02/17 02:10:12;;;;;;;0.75;0.50;;;;;;;9.31;72.77;97340.03;4989439;28;105734;-75
2022/02/17 02:12:37;;;;;;;0.28;0.28;;;;;;;9.38;72.65;97341.78;4989356;28;106083;-76
2022/02/17 02:15:04;;;;;;;0.20;0.20;;;;;;;9.41;72.30;97336.00;4988230;28;105826;-75
2022/02/17 02:17:30;;;;;;;0.68;0.40;;;;;;;9.47;72.35;97349.16;4987460;28;106246;-79
2022/02/17 02:19:58;;;;;;;0.65;0.40;;;;;;;9.56;72.41;97322.22;4988173;28;105963;-76
2022/02/17 02:22:28;;;;;;;0.30;0.30;;;;;;;9.59;72.02;97316.44;4987897;28;105901;-78
2022/02/17 02:24:55;;;;;;;0.40;0.40;;;;;;;9.56;72.06;97325.69;4991589;28;106333;-76
2022/02/17 02:27:21;;;;;;;0.20;0.20;;;;;;;9.58;71.56;97320.13;4991675;28;106222;-76
2022/02/17 02:29:47;;;;;;;0.20;0.20;;;;;;;9.60;71.69;97304.78;4991096;28;105881;-75
2022/02/17 02:32:12;;;;;;;0.30;0.30;;;;;;;9.62;71.74;97302.66;4990648;28;126016;-76
2022/02/17 02:34:38;;;;;;;0.20;0.20;;;;;;;9.63;71.42;97277.72;4992128;28;106008;-74
2022/02/17 02:37:04;;;;;;;0.50;0.43;;;;;;;9.69;71.49;97266.16;4990858;28;106265;-76
2022/02/17 02:39:30;;;;;;;0.60;0.40;;;;;;;9.69;71.61;97260.84;4990684;28;106028;-76
2022/02/17 02:41:55;;;;;;;0.40;0.40;;;;;;;9.70;71.67;97274.94;4990901;28;106223;-75
2022/02/17 02:44:20;;;;;;;0.30;0.30;;;;;;;9.72;71.88;97264.84;4991426;28;105850;-75
2022/02/17 02:46:46;;;;;;;0.52;0.52;;;;;;;9.78;71.71;97226.69;4991301;28;106220;-76
2022/02/17 02:49:11;;;;;;;0.35;0.35;;;;;;;9.80;71.70;97236.06;4990972;28;110696;-75
2022/02/17 02:51:36;;;;;;;0.40;0.40;;;;;;;9.85;71.84;97211.41;4991028;28;106414;-76
2022/02/17 02:54:02;;;;;;;0.47;0.30;;;;;;;9.86;71.34;97220.19;4991441;28;105996;-75
2022/02/17 02:56:27;;;;;;;1.75;0.30;;;;;;;9.83;71.30;97237.44;4991450;28;106107;-75
2022/02/17 02:58:52;;;;;;;0.30;0.30;;;;;;;9.81;71.44;97227.03;4990416;28;121424;-75
2022/02/17 03:01:19;;;;;;;0.52;0.50;;;;;;;9.80;71.44;97206.81;4991360;28;105867;-75
2022/02/17 03:03:48;;;;;;;0.50;0.40;;;;;;;9.83;71.74;97230.25;4991925;28;105955;-75
2022/02/17 03:06:14;;;;;;;0.30;0.30;;;;;;;9.87;71.47;97208.50;4991617;28;106176;-74
2022/02/17 03:08:39;;;;;;;0.40;0.40;;;;;;;9.92;71.75;97241.34;4990976;28;105888;-75
2022/02/17 03:11:04;;;;;;;0.30;0.30;;;;;;;10.03;71.43;97218.34;4990724;28;105912;-75
2022/02/17 03:13:30;;;;;;;0.30;0.30;;;;;;;10.09;71.19;97220.06;4990830;28;105735;-75
2022/02/17 03:15:55;;;;;;;0.63;0.47;;;;;;;10.16;71.15;97206.63;4991345;28;106083;-74
2022/02/17 03:18:20;;;;;;;0.52;0.30;;;;;;;10.23;71.11;97201.16;4990803;28;106260;-74
2022/02/17 03:20:46;;;;;;;0.63;0.40;;;;;;;10.26;70.83;97228.06;4991128;28;108024;-74
2022/02/17 03:23:11;;;;;;;0.40;0.40;;;;;;;10.34;70.82;97202.91;4991572;28;106328;-74
2022/02/17 03:25:36;;;;;;;0.20;0.20;;;;;;;10.37;70.74;97204.31;4991461;28;105656;-74
2022/02/17 03:28:02;;;;;;;0.47;0.40;;;;;;;10.43;70.99;97232.59;4991024;28;108955;-74
2022/02/17 03:30:27;;;;;;;0.17;0.17;;;;;;;10.49;70.73;97194.41;4991424;28;106114;-74
2022/02/17 03:32:52;;;;;;;0.20;0.20;;;;;;;10.55;70.70;97211.25;4991736;28;106362;-74
2022/02/17 03:35:18;;;;;;;0.30;0.30;;;;;;;10.56;70.14;97205.66;4989776;28;111809;-73
2022/02/17 03:37:43;;;;;;;0.40;0.40;;;;;;;10.61;70.34;97221.72;4989354;28;105975;-74
2022/02/17 03:40:09;;;;;;;0.30;0.30;;;;;;;10.64;69.82;97197.28;4990442;28;110491;-74
2022/02/17 03:42:34;;;;;;;0.30;0.30;;;;;;;10.68;69.74;97221.56;4991078;28;106507;-74
2022/02/17 03:45:00;;;;;;;1.42;0.50;;;;;;;10.65;69.67;97208.75;4990888;28;106343;-74
2022/02/17 03:47:25;;;;;;;0.40;0.20;;;;;;;10.60;70.08;97201.47;4990135;28;106253;-73
2022/02/17 03:49:50;;;;;;;0.30;0.30;;;;;;;10.58;69.80;97208.91;4989906;28;113376;-74
2022/02/17 03:52:16;;;;;;;0.70;0.40;;;;;;;10.59;69.96;97164.47;4991169;28;105897;-74
2022/02/17 03:54:41;;;;;;;0.82;0.20;;;;;;;10.60;69.90;97190.03;4990034;28;106153;-73
2022/02/17 03:57:06;;;;;;;0.50;0.38;;;;;;;10.59;70.15;97178.59;4989856;28;106079;-73
2022/02/17 03:59:32;;;;;;;0.22;0.22;;;;;;;10.56;70.22;97179.06;4989968;28;109903;-73
2022/02/17 04:01:58;;;;;;;0.30;0.30;;;;;;;10.56;70.12;97164.94;4990656;28;106044;-73
2022/02/17 04:04:23;;;;;;;0.25;0.25;;;;;;;10.59;70.17;97181.25;4990211;28;106190;-74
2022/02/17 04:06:48;;;;;;;0.25;0.25;;;;;;;10.69;69.87;97171.78;4989720;28;105912;-74
2022/02/17 04:09:14;;;;;;;0.40;0.35;;;;;;;10.75;69.34;97134.31;4989820;28;114190;-74
2022/02/17 04:11:39;;;;;;;0.45;0.43;;;;;;;10.79;69.97;97137.31;4990412;28;106015;-73
2022/02/17 04:14:04;;;;;;;1.10;0.43;;;;;;;10.83;69.64;97328.28;4990150;28;105913;-73
2022/02/17 04:16:30;;;;;;;1.27;0.57;;;;;;;10.78;67.53;97434.72;4989787;28;105996;-75
2022/02/17 04:18:55;;;;;;;3.53;0.80;;;;;;;9.94;65.42;97414.72;4989053;28;115769;-73
2022/02/17 04:21:22;;;;;;;1.50;1.00;;;;;;;9.21;66.63;97382.28;4990462;28;106182;-73
2022/02/17 04:23:47;;;;;;;3.15;0.60;;;;;;;8.66;66.91;97395.84;4989362;28;106190;-74
2022/02/17 04:26:15;;;;;;;3.58;0.45;;;;;;;8.31;68.03;97384.03;4989395;28;107261;-73
2022/02/17 04:28:42;;;;;;;0.50;0.30;;;;;;;8.02;68.38;97346.66;4988661;28;107054;-73
2022/02/17 04:31:07;;;;;;;2.88;0.73;;;;;;;7.83;68.77;97361.78;4989944;28;105963;-73
2022/02/17 04:33:33;;;;;;;3.25;0.88;;;;;;;7.65;69.33;97383.78;4990346;28;106284;-74
2022/02/17 04:35:59;;;;;;;0.93;0.50;;;;;;;7.55;69.80;97341.13;4990374;28;106144;-73
2022/02/17 04:38:24;;;;;;;0.30;0.30;;;;;;;7.44;70.15;97324.91;4988900;28;106054;-72
2022/02/17 04:43:33;;;;;;;0.88;0.65;;;;;;;7.28;70.67;97336.09;4988254;28;105865;-74
2022/02/17 04:45:58;;;;;;;0.90;0.40;;;;;;;7.23;70.47;97344.69;4990585;28;105912;-74
2022/02/17 04:48:23;;;;;;;5.00;0.98;;;;;;;7.21;70.88;97332.69;4988123;28;120023;-73
2022/02/17 04:50:49;;;;;;;3.08;0.70;;;;;;;7.19;71.41;97362.03;4990000;28;105841;-73
2022/02/17 04:53:14;;;;;;;1.50;0.63;;;;;;;7.18;71.41;97367.56;4990328;28;106145;-74
2022/02/17 04:55:39;;;;;;;0.70;0.47;;;;;;;7.14;71.48;97348.66;4989437;28;106682;-74
2022/02/17 04:58:05;;;;;;;0.45;0.40;;;;;;;7.14;71.36;97355.78;4989907;28;106803;-74
2022/02/17 05:00:31;;;;;;;2.33;0.60;;;;;;;7.14;71.24;97366.38;4989650;28;106021;-74
2022/02/17 05:02:56;;;;;;;2.28;0.80;;;;;;;7.08;71.80;97357.44;4989137;28;105798;-74
2022/02/17 05:05:21;;;;;;;2.20;0.85;;;;;;;7.06;71.96;97340.97;4989209;28;109241;-73
2022/02/17 05:07:47;;;;;;;3.33;0.70;;;;;;;7.03;72.16;97334.28;4988854;28;106027;-73
2022/02/17 05:10:12;;;;;;;3.50;0.90;;;;;;;7.03;72.23;97338.78;4989533;28;105877;-75
2022/02/17 05:12:37;;;;;;;5.93;0.93;;;;;;;7.02;72.10;97340.59;4988228;28;110758;-73
2022/02/17 05:15:03;;;;;;;2.15;0.82;;;;;;;7.00;72.13;97333.91;4988364;28;106534;-73
2022/02/17 05:17:29;;;;;;;1.45;0.60;;;;;;;6.96;71.97;97346.78;4987975;28;106922;-74
2022/02/17 05:19:54;;;;;;;2.03;0.50;;;;;;;6.94;72.51;97351.47;4988992;28;105907;-76
2022/02/17 05:22:19;;;;;;;0.77;0.50;;;;;;;6.92;72.50;97361.47;4988625;28;105934;-76
2022/02/17 05:24:45;;;;;;;1.83;0.90;;;;;;;6.89;72.57;97352.13;4987569;28;106009;-77
2022/02/17 05:27:10;;;;;;;5.18;0.93;;;;;;;6.86;72.73;97344.63;4988233;28;105992;-77
2022/02/17 05:29:35;;;;;;;2.88;0.88;;;;;;;6.83;73.08;97357.47;4989156;28;106250;-75
2022/02/17 05:32:01;;;;;;;4.20;1.00;;;;;;;6.83;73.03;97381.28;4987647;28;118560;-78
2022/02/17 05:34:26;;;;;;;3.42;1.20;;;;;;;6.81;73.84;97384.13;4986760;28;127215;-78
2022/02/17 05:36:51;;;;;;;2.00;0.40;;;;;;;6.81;73.73;97386.78;4987210;28;106667;-77
2022/02/17 05:39:16;;;;;;;2.15;0.60;;;;;;;6.85;74.02;97408.31;4988709;28;105869;-76
2022/02/17 05:41:42;;;;;;;1.58;0.70;;;;;;;6.85;74.37;97395.09;4988532;28;106162;-77
2022/02/17 05:44:07;;;;;;;1.23;0.50;;;;;;;6.86;73.88;97402.00;4987534;28;106088;-78
2022/02/17 05:46:32;;;;;;;2.78;0.73;;;;;;;6.88;74.29;97394.69;4987584;28;106453;-75
2022/02/17 05:48:58;;;;;;;1.08;0.60;;;;;;;6.88;74.49;97382.25;4988845;28;106622;-77
2022/02/17 05:51:24;;;;;;;2.05;0.70;;;;;;;6.89;74.35;97357.41;4988542;28;106229;-73
2022/02/17 05:53:49;;;;;;;1.83;0.68;;;;;;;6.92;74.60;97345.59;4987939;28;105901;-73
2022/02/17 05:56:15;;;;;;;2.97;0.90;;;;;;;6.92;74.78;97354.31;4987001;28;119078;-73
2022/02/17 05:58:40;;;;;;;1.55;0.88;;;;;;;6.90;74.79;97387.31;4988792;28;105730;-74
2022/02/17 06:01:06;;;;;;;3.45;0.73;;;;;;;6.87;74.11;97369.22;4991608;28;106142;-74
2022/02/17 06:03:31;;;;;;;2.25;0.73;;;;;;;6.84;75.12;97374.97;4991200;28;106589;-74
2022/02/17 06:05:57;;;;;;;0.70;0.47;;;;;;;6.81;74.63;97357.69;4989474;28;106618;-74
2022/02/17 06:08:23;;;;;;;1.55;0.47;;;;;;;6.82;74.86;97346.06;4991521;28;105945;-72
2022/02/17 06:10:49;;;;;;;2.70;0.50;;;;;;;6.85;74.88;97336.88;4990741;28;105690;-74
2022/02/17 06:13:14;;;;;;;2.08;0.55;;;;;;;6.87;74.89;97361.28;4990928;28;106455;-75
2022/02/17 06:15:40;;;;;;;1.17;0.50;;;;;;;6.89;74.96;97385.69;4990121;28;120978;-74
2022/02/17 06:18:06;;;;;;;1.13;0.60;;;;;;;6.91;74.96;97392.38;4991357;28;106063;-76
2022/02/17 06:20:32;;;;;;;1.73;0.82;;;;;;;6.94;75.38;97402.56;4990937;28;106145;-76
2022/02/17 06:22:57;;;;;;;1.08;0.52;;;;;;;7.00;75.13;97424.72;4990690;28;105853;-76
2022/02/17 06:25:23;;;;;;;0.43;0.40;;;;;;;7.01;75.09;97418.41;4991011;28;105879;-75
2022/02/17 06:27:49;;;;;;;0.88;0.60;;;;;;;7.04;75.26;97417.97;4991716;28;106243;-75
2022/02/17 06:30:20;;;;;;;4.45;0.60;;;;;;;7.07;75.30;97422.81;4990888;28;106229;-75
2022/02/17 06:32:49;;;;;;;1.80;0.57;;;;;;;7.13;75.19;97404.47;4991125;28;106073;-75
2022/02/17 06:35:18;;;;;;;1.15;0.63;;;;;;;7.09;75.79;97420.78;4990593;28;106269;-78
2022/02/17 06:37:44;;;;;;;1.13;0.63;;;;;;;7.06;74.91;97428.34;4990665;28;106212;-78
2022/02/17 06:40:10;;;;;;;3.40;0.90;;;;;;;6.98;74.74;97429.41;4991021;28;105902;-84
2022/02/17 06:42:35;;;;;;;1.33;0.57;;;;;;;6.95;75.29;97449.16;4990393;28;105954;-77
2022/02/17 06:45:02;;;;;;;0.38;0.38;;;;;;;6.93;74.71;97442.50;4990595;28;106175;-78
2022/02/17 06:47:27;;;;;;;0.73;0.40;;;;;;;6.84;74.57;97459.66;4991145;28;106257;-82
2022/02/17 06:49:53;;;;;;;0.47;0.30;;;;;;;6.73;74.52;97377.25;4990613;28;106092;-74
2022/02/17 06:52:18;;;;;;;0.38;0.30;;;;;;;6.66;74.37;97457.72;4990521;28;106082;-73
2022/02/17 06:54:43;;;;;;;2.45;0.63;;;;;;;6.60;74.49;97472.56;4990214;28;105996;-72
2022/02/17 06:57:09;;;;;;;0.85;0.55;;;;;;;6.56;75.10;97496.00;4990989;28;106156;-79
2022/02/17 06:59:34;;;;;;;1.42;0.60;;;;;;;6.54;75.46;97458.38;4990592;28;106162;-75
2022/02/17 07:02:00;;;;;;;0.40;0.40;;;;;;;6.50;75.10;97459.81;4990443;28;105853;-76
2022/02/17 07:04:26;;;;;;;1.58;0.98;;;;;;;6.47;75.22;97448.88;4989905;28;106230;-77
2022/02/17 07:06:51;;;;;;;2.25;0.70;;;;;;;6.47;75.13;97459.44;4990495;28;106470;-75
2022/02/17 07:09:16;;;;;;;3.00;1.25;;;;;;;6.42;74.60;97471.47;4989754;28;105905;-72
2022/02/17 07:11:42;;;;;;;5.78;0.82;;;;;;;6.40;75.42;97484.06;4989897;28;106368;-75
2022/02/17 07:14:11;;;;;;;1.65;1.00;;;;;;;6.41;74.97;97492.81;4989697;28;105979;-74
2022/02/17 07:16:36;;;;;;;2.85;0.77;;;;;;;6.44;74.87;97471.25;4990976;28;106059;-75
2022/02/17 07:19:02;;;;;;;0.70;0.38;;;;;;;6.48;74.90;97482.19;4990452;28;105996;-76
2022/02/17 07:21:28;;;;;;;1.88;0.47;;;;;;;6.54;75.29;97513.13;4989931;28;106030;-75
2022/02/17 07:23:53;;;;;;;1.73;0.70;;;;;;;6.61;74.73;97500.66;4990548;28;106146;-75
2022/02/17 14:58:26;;;;;;;2.85;0.77;;;;;;;8.48;47.00;98017.59;4987210;28;105925;-76
2022/02/17 15:00:54;;;;;;;4.25;2.35;;;;;;;8.49;47.12;98048.38;4986008;28;106085;-73
2022/02/17 15:03:20;;;;;;;2.90;0.93;;;;;;;8.52;47.21;98048.78;4984851;28;106272;-77
2022/02/17 15:05:46;;;;;;;5.80;1.38;;;;;;;8.55;47.81;98063.47;4984409;28;106868;-78
2022/02/17 15:08:13;;;;;;;0.85;0.50;;;;;;;8.58;47.52;98037.34;4984451;28;106268;-75
2022/02/17 15:10:38;;;;;;;1.25;0.65;;;;;;;8.58;47.22;98063.06;4985197;28;105749;-74
2022/02/17 15:13:04;;;;;;;11.65;1.48;;;;;;;8.56;46.95;98079.19;4984913;28;106072;-76
2022/02/17 15:15:30;;;;;;;3.75;1.02;;;;;;;8.56;46.25;98089.00;4984542;28;105913;-77
2022/02/17 15:17:56;;;;;;;2.42;1.20;;;;;;;8.56;46.33;98081.03;4984854;28;106071;-77
2022/02/17 15:20:21;;;;;;;6.80;1.20;;;;;;;8.57;46.40;98111.84;4985979;28;106034;-76
2022/02/17 15:22:49;;;;;;;8.15;1.33;;;;;;;8.57;45.68;98095.91;4985205;28;106016;-76
2022/02/17 21:44:29;;;;;;;2.53;1.20;;;;;;;4.96;53.95;98890.28;5005588;28;105997;-78
2022/02/17 21:46:54;;;;;;;4.75;1.13;;;;;;;5.05;54.12;98915.66;5004384;28;106365;-78
2022/02/17 21:49:20;;;;;;;2.05;1.15;;;;;;;5.15;54.41;98885.63;5005584;28;106184;-75
2022/02/17 21:51:45;;;;;;;3.90;0.93;;;;;;;5.27;54.39;98901.97;5005386;28;105957;-77
2022/02/17 21:54:12;;;;;;;2.03;0.70;;;;;;;5.36;54.31;98917.63;5006531;28;106018;-80
2022/02/17 21:56:38;;;;;;;4.68;1.13;;;;;;;5.46;53.87;98917.44;5005593;28;106002;-75
2022/02/17 21:59:03;;;;;;;3.47;1.05;;;;;;;5.52;53.43;98934.41;5004958;28;106031;-76
2022/02/17 22:01:29;;;;;;;4.55;1.42;;;;;;;5.59;53.73;98907.16;5004847;28;106686;-73
2022/02/17 22:03:55;;;;;;;4.55;1.10;;;;;;;5.63;53.72;98905.03;5004784;28;105882;-74
2022/02/17 22:06:20;;;;;;;5.20;1.10;;;;;;;5.67;53.14;98935.41;5004834;28;106085;-74
2022/02/17 22:08:46;;;;;;;5.25;1.23;;;;;;;5.66;52.97;98935.53;5004761;28;106699;-75
2022/02/17 22:11:11;;;;;;;2.75;0.80;;;;;;;5.63;52.76;98944.66;5004752;28;106002;-75
2022/02/17 22:13:37;;;;;;;2.92;1.00;;;;;;;5.61;52.75;98953.72;5003656;28;107409;-76
2022/02/17 22:16:02;;;;;;;3.65;1.33;;;;;;;5.60;52.97;98950.25;5005769;28;107136;-76
2022/02/17 22:18:27;;;;;;;5.30;1.20;;;;;;;5.56;53.18;98964.78;5005105;28;106207;-75
2022/02/17 22:20:53;;;;;;;1.77;0.70;;;;;;;5.59;53.26;98969.72;5004554;28;109724;-75
2022/02/17 22:23:19;;;;;;;4.25;0.98;;;;;;;5.62;53.09;98985.28;5004848;28;105844;-79
2022/02/17 22:25:46;;;;;;;4.03;1.00;;;;;;;5.64;52.96;98977.97;5006028;28;105932;-75
2022/02/17 22:28:12;;;;;;;5.93;0.80;;;;;;;5.68;52.36;98987.22;5005031;28;106609;-75
2022/02/17 22:30:37;;;;;;;2.75;0.80;;;;;;;5.66;53.01;98973.38;5004889;28;105919;-75
2022/02/17 22:33:03;;;;;;;4.47;1.00;;;;;;;5.63;52.75;98984.28;5004084;28;106017;-75
2022/02/17 22:35:29;;;;;;;2.53;0.98;;;;;;;5.57;52.50;98980.47;5005608;28;105983;-74
2022/02/17 22:37:56;;;;;;;2.70;0.60;;;;;;;5.50;52.63;98982.13;5004734;28;106195;-74
2022/02/17 22:40:22;;;;;;;4.80;1.05;;;;;;;5.41;52.85;99010.38;5004310;28;106101;-79
2022/02/17 22:42:47;;;;;;;2.20;0.80;;;;;;;5.35;53.06;98979.34;5004017;28;106340;-81
2022/02/17 22:45:13;;;;;;;3.35;1.10;;;;;;;5.25;53.10;99002.47;5005422;28;105976;-74
2022/02/17 22:47:38;;;;;;;2.83;1.00;;;;;;;5.15;53.33;99015.00;5003244;28;106210;-73
2022/02/17 22:50:05;;;;;;;5.30;1.20;;;;;;;5.08;53.21;99015.66;5004121;28;106766;-77
2022/02/17 22:52:31;;;;;;;4.63;0.95;;;;;;;5.06;53.49;99015.00;5004690;28;106074;-75
2022/02/17 22:54:56;;;;;;;2.90;0.93;;;;;;;5.02;53.72;99016.31;4995795;28;106218;-73
2022/02/17 22:57:23;;;;;;;4.32;1.33;;;;;;;4.99;53.69;99027.19;4990699;28;105976;-80
2022/02/17 22:59:49;;;;;;;3.00;1.05;;;;;;;5.00;53.78;99033.28;4990058;28;106007;-73
2022/02/17 23:02:14;;;;;;;2.80;1.13;;;;;;;5.06;53.98;99044.03;4990552;28;106119;-71
2022/02/17 23:04:49;;;;;;;3.83;0.95;;;;;;;5.17;54.14;99034.16;4990929;28;105828;-73
2022/02/17 23:07:15;;;;;;;6.70;2.10;;;;;;;5.29;54.15;99061.03;4988058;28;106192;-73
2022/02/17 23:12:26;;;;;;;4.80;1.20;;;;;;;5.35;53.78;99063.84;4988631;28;105753;-73
2022/02/17 23:18:38;;;;;;;5.97;0.95;;;;;;;5.32;53.84;99061.56;4990981;28;105911;-74
2022/02/17 23:20:21;;;;;;;6.68;1.52;;;;;;;5.25;54.37;99076.41;4990961;28;105880;-79
2022/02/17 23:22:46;;;;;;;4.15;1.27;;;;;;;5.28;54.49;99088.47;4990825;28;106035;-75
2022/02/17 23:25:12;;;;;;;5.13;1.42;;;;;;;5.33;54.44;99086.13;4991776;28;105953;-74
2022/02/17 23:27:38;;;;;;;3.35;1.67;;;;;;;5.34;54.19;99087.78;4991021;28;105828;-76
2022/02/17 23:30:03;;;;;;;6.88;1.30;;;;;;;5.39;54.28;99081.03;4990987;28;106029;-74
2022/02/17 23:32:29;;;;;;;1.55;0.80;;;;;;;5.45;54.23;99070.81;4990827;28;106797;-74
2022/02/17 23:34:54;;;;;;;6.20;1.45;;;;;;;5.43;54.27;99097.38;4991572;28;106346;-74
2022/02/17 23:37:19;;;;;;;3.17;1.25;;;;;;;5.42;54.26;99095.72;4990162;28;119976;-75
2022/02/17 23:39:44;;;;;;;7.30;1.00;;;;;;;5.41;54.28;99089.63;4989441;28;120347;-76
2022/02/17 23:42:10;;;;;;;3.83;1.20;;;;;;;5.43;54.14;99098.19;4988263;28;127055;-74
2022/02/17 23:44:35;;;;;;;1.85;0.82;;;;;;;5.41;54.33;99110.75;4989671;28;106034;-75
2022/02/17 23:47:00;;;;;;;4.18;1.15;;;;;;;5.40;54.21;99098.53;4989878;28;106286;-72
2022/02/17 23:49:26;;;;;;;2.67;0.95;;;;;;;5.39;54.12;99111.91;4989437;28;106140;-77
2022/02/17 23:51:51;;;;;;;3.40;1.00;;;;;;;5.39;54.10;99118.00;4989111;28;119655;-73
2022/02/17 23:54:17;;;;;;;4.97;1.17;;;;;;;5.37;53.92;99122.63;4990373;28;106446;-74
2022/02/17 23:56:42;;;;;;;4.43;1.60;;;;;;;5.40;54.11;99113.56;4990848;28;106201;-77
2022/02/17 23:59:07;;;;;;;4.47;1.42;;;;;;;5.38;53.92;99116.34;4990097;28;105900;-75
